createdAt,value
2022-12-09T00:01:17.862Z,19.57
2022-12-09T00:03:46.536Z,19.35
2022-12-09T00:06:17.449Z,19.56
2022-12-09T00:08:45.283Z,19.31
2022-12-09T00:11:13.861Z,19.54
2022-12-09T00:13:41.696Z,19.50
2022-12-09T00:16:12.635Z,19.53
2022-12-09T00:18:40.907Z,19.51
2022-12-09T00:21:15.560Z,19.49
2022-12-09T00:23:43.414Z,19.48
2022-12-09T00:26:11.545Z,19.39
2022-12-09T00:28:40.034Z,19.44
2022-12-09T00:31:10.484Z,19.46
2022-12-09T00:33:39.018Z,19.19
2022-12-09T00:36:09.343Z,19.51
2022-12-09T00:38:37.782Z,19.49
2022-12-09T00:41:06.092Z,19.49
2022-12-09T00:43:34.408Z,19.51
2022-12-09T00:46:02.861Z,19.20
2022-12-09T00:48:31.020Z,18.91
2022-12-09T00:50:59.677Z,19.17
2022-12-09T00:53:27.913Z,19.47
2022-12-09T00:55:55.804Z,19.48
2022-12-09T00:58:24.081Z,19.43
2022-12-09T01:00:54.279Z,19.00
2022-12-09T01:03:22.293Z,19.45
2022-12-09T01:05:50.517Z,19.19
2022-12-09T01:08:18.691Z,19.51
2022-12-09T01:10:46.841Z,19.52
2022-12-09T01:13:15.834Z,19.20
2022-12-09T01:15:44.611Z,19.48
2022-12-09T01:18:13.168Z,19.54
2022-12-09T01:20:40.990Z,19.19
2022-12-09T01:23:08.760Z,19.38
2022-12-09T01:25:38.343Z,19.51
2022-12-09T01:28:06.184Z,19.59
2022-12-09T01:30:33.834Z,19.54
2022-12-09T01:33:01.855Z,19.60
2022-12-09T01:35:29.971Z,19.36
2022-12-09T01:37:57.927Z,19.56
2022-12-09T01:40:25.792Z,19.28
2022-12-09T01:42:54.240Z,19.46
2022-12-09T01:45:22.492Z,19.50
2022-12-09T01:48:00.337Z,19.51
2022-12-09T01:50:29.475Z,19.20
2022-12-09T01:52:57.891Z,19.40
2022-12-09T01:55:27.908Z,19.55
2022-12-09T01:57:55.522Z,19.48
2022-12-09T02:00:23.513Z,19.41
2022-12-09T02:02:53.466Z,19.53
2022-12-09T02:05:24.579Z,19.45
2022-12-09T02:07:58.755Z,19.27
2022-12-09T02:10:28.046Z,19.52
2022-12-09T02:13:22.587Z,19.58
2022-12-09T02:16:03.305Z,19.46
2022-12-09T02:18:37.295Z,19.62
2022-12-09T02:21:12.443Z,19.56
2022-12-09T02:23:51.840Z,19.61
2022-12-09T02:26:38.145Z,19.52
2022-12-09T02:29:30.571Z,19.56
2022-12-09T02:32:07.667Z,19.56
2022-12-09T02:34:44.295Z,19.38
2022-12-09T02:37:25.437Z,19.52
2022-12-09T02:39:58.627Z,19.48
2022-12-09T02:42:32.355Z,19.38
2022-12-09T02:45:05.100Z,19.35
2022-12-09T02:47:36.923Z,18.98
2022-12-09T02:50:13.277Z,19.28
2022-12-09T02:52:42.821Z,18.69
2022-12-09T02:55:15.787Z,19.40
2022-12-09T02:57:43.577Z,19.00
2022-12-09T03:00:15.638Z,19.41
2022-12-09T03:02:47.836Z,19.12
2022-12-09T03:05:26.149Z,18.95
2022-12-09T03:08:07.112Z,19.40
2022-12-09T03:10:43.586Z,19.43
2022-12-09T03:13:50.093Z,19.44
2022-12-09T03:16:29.851Z,19.41
2022-12-09T03:19:06.957Z,19.30
2022-12-09T03:21:38.844Z,19.07
2022-12-09T03:24:10.437Z,19.24
2022-12-09T03:26:39.556Z,19.29
2022-12-09T03:29:13.680Z,19.39
2022-12-09T03:31:43.164Z,19.36
2022-12-09T03:34:16.289Z,19.31
2022-12-09T03:36:48.591Z,18.95
2022-12-09T03:39:20.592Z,19.36
2022-12-09T03:41:52.880Z,19.11
2022-12-09T03:44:23.471Z,19.28
2022-12-09T03:46:51.652Z,19.06
2022-12-09T03:49:19.575Z,19.40
2022-12-09T03:51:55.084Z,19.42
2022-12-09T03:54:35.683Z,19.19
2022-12-09T03:57:04.763Z,19.14
2022-12-09T03:59:34.922Z,19.08
2022-12-09T04:02:06.064Z,19.47
2022-12-09T04:04:38.661Z,19.39
2022-12-09T04:07:06.948Z,19.43
2022-12-09T04:09:35.935Z,19.17
2022-12-09T04:12:04.190Z,19.44
2022-12-09T04:14:32.326Z,19.10
2022-12-09T04:17:00.273Z,19.11
2022-12-09T04:19:28.372Z,19.29
2022-12-09T04:21:56.190Z,19.37
2022-12-09T04:24:24.327Z,19.17
2022-12-09T04:26:52.168Z,18.95
2022-12-09T04:29:19.984Z,18.73
2022-12-09T04:31:47.946Z,19.22
2022-12-09T04:34:16.266Z,19.34
2022-12-09T04:36:44.405Z,19.15
2022-12-09T04:39:12.142Z,19.26
2022-12-09T04:41:40.063Z,19.29
2022-12-09T04:44:07.874Z,19.29
2022-12-09T04:46:35.847Z,18.98
2022-12-09T04:49:04.177Z,18.95
2022-12-09T04:51:39.119Z,19.24
2022-12-09T04:54:12.583Z,19.16
2022-12-09T04:56:41.102Z,18.85
2022-12-09T04:59:08.926Z,19.05
2022-12-09T05:01:37.090Z,19.12
2022-12-09T05:04:05.447Z,18.83
2022-12-09T05:06:33.648Z,19.25
2022-12-09T05:09:02.182Z,19.23
2022-12-09T05:11:30.452Z,18.86
2022-12-09T05:13:58.529Z,19.24
2022-12-09T05:16:26.461Z,18.91
2022-12-09T05:18:54.723Z,19.17
2022-12-09T05:21:22.566Z,19.07
2022-12-09T05:23:50.416Z,19.02
2022-12-09T05:26:20.801Z,19.25
2022-12-09T05:28:49.386Z,18.74
2022-12-09T05:31:20.059Z,19.09
2022-12-09T05:33:49.662Z,19.22
2022-12-09T05:36:20.144Z,19.07
2022-12-09T05:38:49.067Z,19.09
2022-12-09T05:41:18.603Z,19.32
2022-12-09T05:43:46.636Z,19.10
2022-12-09T05:46:15.200Z,19.20
2022-12-09T05:48:44.329Z,19.17
2022-12-09T05:51:16.803Z,19.14
2022-12-09T05:53:44.596Z,18.66
2022-12-09T05:56:16.163Z,19.17
2022-12-09T05:58:44.412Z,18.81
2022-12-09T06:01:13.089Z,19.07
2022-12-09T06:03:45.728Z,19.33
2022-12-09T06:06:16.344Z,19.18
2022-12-09T06:08:45.926Z,19.32
2022-12-09T06:11:16.832Z,19.34
2022-12-09T06:13:45.930Z,19.35
2022-12-09T06:16:15.425Z,19.38
2022-12-09T06:18:43.633Z,19.40
2022-12-09T06:21:13.416Z,19.41
2022-12-09T06:23:42.905Z,18.84
2022-12-09T06:26:29.165Z,18.88
2022-12-09T06:28:58.426Z,19.48
2022-12-09T06:31:28.306Z,19.40
2022-12-09T06:33:58.401Z,19.48
2022-12-09T06:36:28.890Z,19.15
2022-12-09T06:39:05.945Z,19.43
2022-12-09T06:41:42.148Z,19.38
2022-12-09T06:44:15.870Z,19.42
2022-12-09T06:46:49.549Z,19.40
2022-12-09T06:49:17.531Z,19.05
2022-12-09T06:51:46.222Z,19.65
2022-12-09T06:54:14.156Z,19.52
2022-12-09T06:56:42.515Z,19.56
2022-12-09T06:59:11.255Z,19.10
2022-12-09T07:01:39.862Z,19.59
2022-12-09T07:04:08.411Z,19.48
2022-12-09T07:06:39.260Z,19.39
2022-12-09T07:09:08.913Z,19.51
2022-12-09T07:11:37.867Z,19.18
2022-12-09T07:14:06.208Z,18.94
2022-12-09T07:16:35.150Z,19.00
2022-12-09T07:19:04.386Z,19.11
2022-12-09T07:21:32.638Z,19.34
2022-12-09T07:24:02.875Z,19.61
2022-12-09T07:26:32.775Z,19.51
2022-12-09T07:29:05.232Z,19.50
2022-12-09T07:31:33.984Z,19.41
2022-12-09T07:34:04.104Z,19.56
2022-12-09T07:36:35.129Z,19.28
2022-12-09T07:39:07.092Z,19.06
2022-12-09T07:41:35.333Z,19.58
2022-12-09T07:44:04.103Z,19.31
2022-12-09T07:46:32.445Z,19.59
2022-12-09T07:49:02.742Z,19.58
2022-12-09T07:51:30.968Z,19.25
2022-12-09T07:53:59.465Z,19.43
2022-12-09T07:56:29.347Z,19.51
2022-12-09T07:58:57.599Z,19.37
2022-12-09T08:01:28.523Z,19.59
2022-12-09T08:03:57.308Z,19.62
2022-12-09T08:06:28.215Z,19.45
2022-12-09T08:09:01.849Z,19.42
2022-12-09T08:11:31.865Z,19.41
2022-12-09T08:14:08.987Z,19.66
2022-12-09T08:16:40.457Z,19.68
2022-12-09T08:19:09.027Z,19.48
2022-12-09T08:21:37.063Z,19.70
2022-12-09T08:24:07.733Z,19.63
2022-12-09T08:26:40.011Z,19.55
2022-12-09T08:29:13.597Z,19.53
2022-12-09T08:31:44.093Z,19.33
2022-12-09T08:34:13.051Z,19.91
2022-12-09T08:36:42.358Z,20.01
2022-12-09T08:39:11.596Z,20.05
2022-12-09T08:41:40.254Z,20.14
2022-12-09T08:44:17.392Z,19.93
2022-12-09T08:46:48.303Z,20.02
2022-12-09T08:49:22.342Z,20.13
2022-12-09T08:51:53.462Z,19.81
2022-12-09T08:54:21.768Z,19.87
2022-12-09T08:56:52.261Z,20.03
2022-12-09T08:59:20.325Z,19.98
2022-12-09T09:01:48.479Z,20.13
2022-12-09T09:04:20.472Z,20.00
2022-12-09T09:06:50.582Z,20.03
2022-12-09T09:09:20.304Z,20.01
2022-12-09T09:11:48.927Z,20.02
2022-12-09T09:14:17.433Z,19.83
2022-12-09T09:16:46.246Z,20.10
2022-12-09T09:19:17.610Z,19.97
2022-12-09T09:21:45.775Z,20.14
2022-12-09T09:24:16.745Z,19.95
2022-12-09T09:26:45.670Z,19.76
2022-12-09T09:29:16.009Z,19.69
2022-12-09T09:31:44.831Z,19.69
2022-12-09T09:34:13.193Z,20.01
2022-12-09T09:36:41.365Z,19.95
2022-12-09T09:39:09.787Z,19.90
2022-12-09T09:41:54.698Z,20.07
2022-12-09T09:44:25.807Z,20.05
2022-12-09T09:46:56.653Z,20.06
2022-12-09T09:49:30.913Z,20.05
2022-12-09T09:52:07.252Z,20.04
2022-12-09T09:54:35.161Z,20.03
2022-12-09T09:57:12.618Z,19.79
2022-12-09T10:00:07.268Z,20.02
2022-12-09T10:03:05.077Z,19.97
2022-12-09T10:05:41.328Z,19.65
2022-12-09T10:08:25.087Z,19.76
2022-12-09T10:11:09.122Z,19.96
2022-12-09T10:13:45.236Z,19.96
2022-12-09T10:16:25.115Z,19.97
2022-12-09T10:19:14.779Z,19.76
2022-12-09T10:21:45.525Z,19.91
2022-12-09T10:24:31.764Z,19.98
2022-12-09T10:27:12.781Z,20.00
2022-12-09T10:30:02.896Z,20.02
2022-12-09T10:32:33.939Z,20.00
2022-12-09T10:35:14.318Z,19.99
2022-12-09T10:37:42.347Z,19.84
2022-12-09T10:40:10.923Z,20.10
2022-12-09T10:43:05.872Z,20.12
2022-12-09T10:46:08.023Z,19.82
2022-12-09T10:48:34.242Z,20.13
2022-12-09T10:51:12.288Z,20.14
2022-12-09T10:54:02.925Z,20.16
2022-12-09T10:56:36.937Z,19.95
2022-12-09T10:59:13.881Z,20.19
2022-12-09T11:01:49.666Z,20.20
2022-12-09T11:04:28.136Z,19.95
2022-12-09T11:07:07.936Z,20.25
2022-12-09T11:09:39.534Z,20.10
2022-12-09T11:12:19.241Z,19.99
2022-12-09T11:14:53.432Z,20.16
2022-12-09T11:17:28.582Z,20.27
2022-12-09T11:20:26.291Z,20.16
2022-12-09T11:23:14.405Z,20.06
2022-12-09T11:26:00.243Z,19.96
2022-12-09T11:28:36.170Z,20.31
2022-12-09T11:31:32.758Z,20.04
2022-12-09T11:34:05.444Z,20.29
2022-12-09T11:36:37.274Z,20.32
2022-12-09T11:39:25.552Z,20.05
2022-12-09T11:42:17.377Z,20.31
2022-12-09T11:45:02.996Z,20.02
2022-12-09T11:48:21.130Z,20.25
2022-12-09T11:50:33.420Z,20.37
2022-12-09T11:53:11.133Z,20.30
2022-12-09T11:55:46.392Z,20.43
2022-12-09T11:58:18.358Z,20.28
2022-12-09T12:00:55.730Z,20.33
2022-12-09T12:03:36.678Z,20.43
2022-12-09T12:06:08.743Z,20.41
2022-12-09T12:08:46.722Z,20.26
2022-12-09T12:11:30.955Z,20.44
2022-12-09T12:14:13.034Z,20.20
2022-12-09T12:17:09.235Z,19.78
2022-12-09T12:19:42.134Z,20.33
2022-12-09T12:22:09.667Z,20.52
2022-12-09T12:25:17.796Z,20.44
2022-12-09T12:28:01.572Z,20.52
2022-12-09T12:30:59.963Z,20.46
2022-12-09T12:36:40.084Z,20.53
2022-12-09T12:39:28.475Z,20.27
2022-12-09T12:42:25.692Z,20.54
2022-12-09T12:45:31.439Z,20.54
2022-12-09T12:48:08.906Z,20.57
2022-12-09T12:50:57.829Z,20.58
2022-12-09T12:53:34.595Z,20.61
2022-12-09T12:56:07.885Z,20.63
2022-12-09T12:59:07.984Z,20.60
2022-12-09T13:02:01.092Z,20.64
2022-12-09T13:04:44.423Z,20.48
2022-12-09T13:07:20.948Z,20.78
2022-12-09T13:09:48.797Z,20.80
2022-12-09T13:12:45.481Z,20.80
2022-12-09T13:15:17.827Z,20.53
2022-12-09T13:17:48.441Z,20.64
2022-12-09T13:20:30.197Z,20.63
2022-12-09T13:23:12.917Z,20.70
2022-12-09T13:26:20.276Z,20.88
2022-12-09T13:28:52.028Z,20.91
2022-12-09T13:31:29.413Z,20.92
2022-12-09T13:34:26.120Z,20.95
2022-12-09T13:36:53.810Z,20.33
2022-12-09T13:39:39.993Z,20.93
2022-12-09T13:42:46.326Z,20.91
2022-12-09T13:45:16.430Z,20.91
2022-12-09T13:47:44.290Z,20.84
2022-12-09T13:50:28.958Z,20.94
2022-12-09T13:53:34.351Z,20.97
2022-12-09T13:56:17.776Z,20.98
2022-12-09T13:59:05.150Z,20.97
2022-12-09T14:01:42.029Z,20.98
2022-12-09T14:04:18.861Z,20.97
2022-12-09T14:06:46.403Z,21.01
2022-12-09T14:09:39.293Z,20.97
2022-12-09T14:12:11.906Z,20.82
2022-12-09T14:14:52.759Z,21.04
2022-12-09T14:17:27.224Z,21.07
2022-12-09T14:20:04.164Z,21.02
2022-12-09T14:22:33.734Z,21.08
2022-12-09T14:25:26.509Z,21.07
2022-12-09T14:28:24.451Z,21.06
2022-12-09T14:31:02.008Z,20.83
2022-12-09T14:33:47.312Z,20.90
2022-12-09T14:36:14.905Z,21.05
2022-12-09T14:41:53.311Z,21.01
2022-12-09T14:44:39.064Z,20.82
2022-12-09T14:47:28.495Z,21.04
2022-12-09T14:50:05.909Z,20.93
2022-12-09T14:52:34.719Z,20.73
2022-12-09T14:55:09.381Z,20.65
2022-12-09T14:57:41.689Z,20.80
2022-12-09T15:00:36.220Z,20.73
2022-12-09T15:03:44.863Z,20.98
2022-12-09T15:06:16.804Z,20.99
2022-12-09T15:08:44.701Z,20.81
2022-12-09T15:11:19.503Z,20.90
2022-12-09T15:13:50.560Z,20.97
2022-12-09T15:16:21.532Z,20.95
2022-12-09T15:18:51.331Z,20.97
2022-12-09T15:21:29.608Z,20.98
2022-12-09T15:24:00.867Z,20.70
2022-12-09T15:26:33.688Z,21.03
2022-12-09T15:29:05.374Z,21.02
2022-12-09T15:31:34.698Z,20.94
2022-12-09T15:34:14.804Z,21.01
2022-12-09T15:36:47.794Z,20.99
2022-12-09T15:39:18.331Z,21.00
2022-12-09T15:42:07.271Z,20.67
2022-12-09T15:44:44.600Z,21.00
2022-12-09T15:47:18.478Z,20.92
2022-12-09T15:49:53.721Z,20.72
2022-12-09T15:52:27.649Z,20.92
2022-12-09T15:54:56.872Z,20.72
2022-12-09T15:57:28.163Z,21.02
2022-12-09T15:59:58.487Z,21.05
2022-12-09T16:02:29.875Z,20.88
2022-12-09T16:05:02.011Z,20.56
2022-12-09T16:07:33.276Z,21.07
2022-12-09T16:10:01.012Z,21.06
2022-12-09T16:12:32.740Z,21.06
2022-12-09T16:15:02.308Z,20.98
2022-12-09T16:17:38.564Z,20.66
2022-12-09T16:20:35.976Z,20.93
2022-12-09T16:23:06.237Z,20.91
2022-12-09T16:25:45.044Z,20.76
2022-12-09T16:28:22.811Z,20.81
2022-12-09T16:31:01.874Z,20.87
2022-12-09T16:33:35.497Z,20.80
2022-12-09T16:36:06.683Z,20.84
2022-12-09T16:38:37.009Z,20.86
2022-12-09T16:41:08.228Z,20.82
2022-12-09T16:43:36.900Z,20.90
2022-12-09T16:46:14.072Z,20.89
2022-12-09T16:48:42.780Z,20.72
2022-12-09T16:51:11.799Z,20.87
2022-12-09T16:53:44.663Z,20.39
2022-12-09T16:56:25.367Z,20.77
2022-12-09T16:58:54.344Z,20.85
2022-12-09T17:01:29.693Z,20.59
2022-12-09T17:04:02.838Z,20.48
2022-12-09T17:06:32.150Z,20.59
2022-12-09T17:08:59.845Z,20.61
2022-12-09T17:11:27.770Z,20.80
2022-12-09T17:13:55.452Z,20.53
2022-12-09T17:16:25.853Z,20.79
2022-12-09T17:18:53.748Z,20.80
2022-12-09T17:21:21.571Z,20.54
2022-12-09T17:23:49.317Z,20.33
2022-12-09T17:26:19.278Z,20.75
2022-12-09T17:28:49.187Z,20.53
2022-12-09T17:31:22.474Z,20.54
2022-12-09T17:33:51.413Z,20.70
2022-12-09T17:36:20.096Z,20.16
2022-12-09T17:38:48.148Z,20.68
2022-12-09T17:41:20.847Z,20.52
2022-12-09T17:43:48.652Z,20.45
2022-12-09T17:46:16.524Z,20.76
2022-12-09T17:48:44.505Z,20.36
2022-12-09T17:51:14.836Z,20.79
2022-12-09T17:53:43.334Z,20.74
2022-12-09T17:56:16.119Z,20.84
2022-12-09T17:58:44.492Z,20.55
2022-12-09T18:01:14.967Z,20.63
2022-12-09T18:03:56.040Z,20.23
2022-12-09T18:06:26.116Z,20.72
2022-12-09T18:08:54.783Z,20.77
2022-12-09T18:11:23.038Z,20.70
2022-12-09T18:13:51.138Z,20.69
2022-12-09T18:16:19.413Z,20.71
2022-12-09T18:18:47.554Z,20.82
2022-12-09T18:21:16.195Z,20.81
2022-12-09T18:23:44.267Z,20.83
2022-12-09T18:26:14.140Z,20.85
2022-12-09T18:28:44.735Z,20.84
2022-12-09T18:31:19.347Z,20.82
2022-12-09T18:33:48.341Z,20.67
2022-12-09T18:36:18.891Z,20.67
2022-12-09T18:38:47.342Z,20.76
2022-12-09T18:41:21.321Z,20.61
2022-12-09T18:43:51.431Z,20.75
2022-12-09T18:46:25.411Z,20.63
2022-12-09T18:49:02.180Z,20.75
2022-12-09T18:51:29.957Z,20.78
2022-12-09T18:53:59.004Z,20.64
2022-12-09T18:56:27.458Z,20.81
2022-12-09T18:59:11.777Z,20.68
2022-12-09T19:01:42.085Z,20.77
2022-12-09T19:04:23.656Z,20.35
2022-12-09T19:06:54.835Z,20.71
2022-12-09T19:09:35.128Z,20.88
2022-12-09T19:12:37.981Z,20.68
2022-12-09T19:14:52.784Z,20.83
2022-12-09T19:17:21.561Z,20.64
2022-12-09T19:19:49.901Z,20.81
2022-12-09T19:22:17.529Z,20.59
2022-12-09T19:24:45.362Z,20.88
2022-12-09T19:27:13.520Z,20.86
2022-12-09T19:29:41.515Z,20.87
2022-12-09T19:32:29.383Z,20.87
2022-12-09T19:34:56.709Z,20.83
2022-12-09T19:37:24.480Z,20.61
2022-12-09T19:39:52.446Z,20.84
2022-12-09T19:42:20.237Z,20.67
2022-12-09T19:45:10.452Z,20.79
2022-12-09T19:47:38.594Z,20.45
2022-12-09T19:50:07.577Z,20.58
2022-12-09T19:52:35.465Z,20.47
2022-12-09T19:55:04.464Z,20.81
2022-12-09T19:57:32.202Z,20.76
2022-12-09T19:59:59.831Z,20.78
2022-12-09T20:02:27.473Z,20.69
2022-12-09T20:04:55.196Z,20.80
2022-12-09T20:07:22.918Z,20.77
2022-12-09T20:09:50.653Z,20.70
2022-12-09T20:12:18.544Z,20.74
2022-12-09T20:14:46.299Z,20.49
2022-12-09T20:17:13.964Z,20.73
2022-12-09T20:19:44.081Z,20.33
2022-12-09T20:22:11.777Z,20.52
2022-12-09T20:24:39.509Z,20.89
2022-12-09T20:27:07.211Z,20.44
2022-12-09T20:29:37.880Z,20.87
2022-12-09T20:32:08.445Z,20.45
2022-12-09T20:34:36.424Z,20.76
2022-12-09T20:37:04.635Z,20.83
2022-12-09T20:39:32.481Z,20.76
2022-12-09T20:42:00.742Z,20.54
2022-12-09T20:44:28.513Z,20.49
2022-12-09T20:46:57.043Z,20.32
2022-12-09T20:49:27.150Z,20.85
2022-12-09T20:51:55.764Z,20.72
2022-12-09T20:54:23.504Z,20.42
2022-12-09T20:56:51.658Z,20.81
2022-12-09T20:59:19.239Z,20.94
2022-12-09T21:01:47.513Z,20.97
2022-12-09T21:04:15.811Z,21.00
2022-12-09T21:06:44.053Z,20.90
2022-12-09T21:09:17.549Z,21.01
2022-12-09T21:11:46.822Z,20.95
2022-12-09T21:14:18.373Z,20.97
2022-12-09T21:16:47.399Z,20.93
2022-12-09T21:19:17.088Z,20.79
2022-12-09T21:21:48.177Z,20.87
2022-12-09T21:24:16.655Z,20.80
2022-12-09T21:26:47.308Z,20.77
2022-12-09T21:29:15.638Z,20.76
2022-12-09T21:31:44.463Z,20.74
2022-12-09T21:34:12.829Z,20.65
2022-12-09T21:36:44.317Z,20.67
2022-12-09T21:39:14.092Z,20.75
2022-12-09T21:41:42.794Z,20.70
2022-12-09T21:44:18.105Z,20.74
2022-12-09T21:46:46.418Z,20.49
2022-12-09T21:49:14.910Z,20.49
2022-12-09T21:51:43.630Z,20.33
2022-12-09T21:54:11.983Z,20.53
2022-12-09T21:56:40.072Z,20.42
2022-12-09T21:59:08.398Z,20.54
2022-12-09T22:01:39.031Z,20.54
2022-12-09T22:04:10.059Z,20.59
2022-12-09T22:06:39.124Z,20.38
2022-12-09T22:09:08.054Z,20.52
2022-12-09T22:11:37.429Z,20.32
2022-12-09T22:14:06.403Z,20.55
2022-12-09T22:16:40.811Z,20.40
2022-12-09T22:19:11.042Z,20.55
2022-12-09T22:21:39.306Z,20.30
2022-12-09T22:24:08.414Z,20.59
2022-12-09T22:26:36.043Z,20.37
2022-12-09T22:29:05.694Z,20.57
2022-12-09T22:31:37.904Z,20.57
2022-12-09T22:34:13.117Z,20.24
2022-12-09T22:36:41.262Z,20.50
2022-12-09T22:39:13.645Z,20.42
2022-12-09T22:41:41.930Z,20.26
2022-12-09T22:44:12.736Z,20.16
2022-12-09T22:46:42.573Z,20.22
2022-12-09T22:49:12.362Z,20.45
2022-12-09T22:51:41.603Z,20.45
2022-12-09T22:54:10.227Z,20.46
2022-12-09T22:56:39.985Z,20.42
2022-12-09T22:59:07.756Z,20.40
2022-12-09T23:01:37.493Z,20.38
2022-12-09T23:04:07.226Z,20.41
2022-12-09T23:06:37.826Z,20.31
2022-12-09T23:09:14.998Z,20.37
2022-12-09T23:11:42.760Z,20.08
2022-12-09T23:14:10.559Z,20.37
2022-12-09T23:16:38.218Z,20.39
2022-12-09T23:19:06.005Z,20.36
2022-12-09T23:21:36.682Z,20.12
2022-12-09T23:24:22.551Z,20.17
2022-12-09T23:26:55.901Z,20.33
2022-12-09T23:29:23.667Z,20.14
2022-12-09T23:31:51.632Z,20.09
2022-12-09T23:34:19.555Z,20.34
2022-12-09T23:36:47.492Z,20.01
2022-12-09T23:39:17.735Z,20.12
2022-12-09T23:41:46.456Z,20.22
2022-12-09T23:44:20.053Z,20.26
2022-12-09T23:46:48.086Z,20.25
2022-12-09T23:49:16.346Z,20.21
2022-12-09T23:51:44.730Z,20.19
2022-12-09T23:54:14.827Z,20.20
2022-12-09T23:56:48.055Z,20.10
2022-12-09T23:59:18.186Z,20.23
